• Join FlightAware (Why Join?)
  • Login
  • US Flag 
06:23AM EDT


 

Airport Tracker/Info


-or-


 

Live Flight TrackerFlight Track Log ✈ VH-OZO ✈ 09-Jul-2013 ✈ YPJT / JAD - YFTA

Flight Track Log - Related Links

Times and Time Zones

All times are in EDT time to prevent confusion due to time zone crossing. See the VH-OZO flight status page for this flight to view local times or setup timezone preferences in your user account.

Time Position Orientation Groundspeed Altitude Reporting Facility
EDT Latitude Longitude Course Direction KTS MPH feet Rate Location/Type
08:13PM -32.1544 116.2593 99° East  Level FlightAware Approximate
08:14PM -32.1631 116.3228 99° East  Level FlightAware Approximate
08:15PM -32.1717 116.3863 99° East  Level FlightAware Approximate
08:16PM -32.1804 116.4498 99° East  Level FlightAware Approximate
08:17PM -32.1890 116.5134 99° East  Level FlightAware Approximate
08:18PM -32.1975 116.5769 99° East  Level FlightAware Approximate
08:19PM -32.2061 116.6405 99° East  Level FlightAware Approximate
08:20PM -32.2146 116.7041 99° East  Level FlightAware Approximate
08:21PM -32.2230 116.7676 99° East  Level FlightAware Approximate
08:21PM -32.2480 116.6331 99° East 209 241 9,100  Level Aus ATC (RADAR)
08:22PM -32.2315 116.8313 99° East  Level FlightAware Approximate
08:23PM -32.2583 116.7178 98° East  Level Estimated
08:30PM -32.3104 117.1570 98° East  Level Estimated
08:30PM -32.3163 117.2073 98° East 198 228 9,100  Level Aus ATC (RADAR)
08:31PM -32.3178 117.2197 98° East  Level Estimated
08:32PM -32.3297 117.3246 98° East  Level FlightAware Approximate
08:39PM -32.3791 117.7646 98° East  Level FlightAware Approximate
08:40PM -32.3861 117.8275 97° East  Level FlightAware Approximate
08:41PM -32.3930 117.8904 97° East  Level FlightAware Approximate
08:42PM -32.3998 117.9533 97° East  Level FlightAware Approximate
08:42PM -32.3991 117.9821 105° East  Level Aus ATC (Calculated)
08:43PM -32.4067 118.0162 97° East  Level FlightAware Approximate
08:44PM -32.4135 118.0791 97° East  Level FlightAware Approximate
08:45PM -32.4203 118.1421 97° East  Level FlightAware Approximate
08:46PM -32.4270 118.2050 97° East  Level FlightAware Approximate
08:47PM -32.4337 118.2680 97° East  Level FlightAware Approximate
08:48PM -32.4404 118.3309 97° East  Level FlightAware Approximate
08:49PM -32.4470 118.3939 97° East  Level FlightAware Approximate
08:50PM -32.4537 118.4569 97° East  Level FlightAware Approximate
08:51PM -32.4603 118.5199 97° East  Level FlightAware Approximate
08:52PM -32.4668 118.5829 97° East  Level FlightAware Approximate
08:53PM -32.4733 118.6459 97° East  Level FlightAware Approximate
08:54PM -32.4798 118.7090 97° East  Level FlightAware Approximate
08:55PM -32.4863 118.7720 97° East  Level FlightAware Approximate
08:56PM -32.4932 118.8584 97° East  Level FlightAware Approximate
08:56PM -32.5028 118.9513 276° West  Level Aus ATC (Calculated)
08:57PM -32.5000 118.9214 99° East  Level Estimated
08:58PM -32.5068 118.9844 99° East  Level Estimated
08:59PM -32.5135 119.0474 99° East  Level Estimated
09:00PM -32.5202 119.1104 99° East  Level Estimated
09:01PM -32.5269 119.1734 99° East  Level Estimated
09:02PM -32.5335 119.2365 99° East  Level Estimated
09:03PM -32.5401 119.2995 99° East  Level Estimated
09:04PM -32.5467 119.3626 99° East  Level Estimated
09:05PM -32.5619 119.5103 99° East  Level Estimated
09:06PM -32.5684 119.5733 99° East  Level Estimated
09:07PM -32.5749 119.6364 99° East  Level Estimated
09:08PM -32.5783 119.7067 99° East  Level FlightAware Approximate
09:09PM -32.5822 119.7078 99° East  Level Estimated
09:10PM -32.5783 119.7067 99° East  Level FlightAware Approximate
09:11PM -32.5822 119.7078 99° East  Level Estimated
09:12PM -32.5783 119.7067 99° East  Level FlightAware Approximate
09:13PM -32.5822 119.7078 99° East  Level Estimated
09:14PM -32.5783 119.7067 99° East  Level FlightAware Approximate
09:15PM -32.5822 119.7078 99° East  Level Estimated
09:16PM -32.5783 119.7067 99° East  Level FlightAware Approximate
09:17PM -32.5822 119.7078 99° East  Level Estimated
09:18PM -32.5783 119.7067 99° East  Level FlightAware Approximate
09:19PM -32.5822 119.7078 99° East  Level Estimated
09:20PM -32.5783 119.7067 99° East  Level FlightAware Approximate
09:21PM -32.5822 119.7078 99° East  Level Estimated
09:22PM -32.5783 119.7067 99° East  Level FlightAware Approximate
09:23PM -32.5822 119.7078 99° East  Level Estimated
09:24PM -32.5783 119.7067 99° East  Level FlightAware Approximate